Time;durP1;ratioP1;P1;durP2;ratioP2;P2;SDS_P1;SDS_P2;PMS_P1;PMS_P2;Temp;Humidity;BMP_temperature;BMP_pressure;BME280_temperature;BME280_humidity;BME280_pressure;Samples;Min_cycle;Max_cycle;Signal;HPM_P1;HPM_P2
2021/05/25 00:00:08;;;;;;;2.90;0.75;;;9.70;99.90;;;;;;4937085;29;20193;-77
2021/05/25 00:02:34;;;;;;;1.00;0.65;;;9.60;99.90;;;;;;4937995;29;20196;-77
2021/05/25 00:04:59;;;;;;;1.17;0.63;;;9.70;99.90;;;;;;4937613;29;20205;-77
2021/05/25 00:07:25;;;;;;;1.80;0.80;;;9.70;99.90;;;;;;4936706;29;20177;-77
2021/05/25 00:09:51;;;;;;;1.20;0.63;;;9.60;99.90;;;;;;4936868;29;20178;-77
2021/05/25 00:12:16;;;;;;;0.73;0.53;;;9.60;99.90;;;;;;4938042;29;20189;-77
2021/05/25 00:14:42;;;;;;;1.37;0.67;;;9.50;99.90;;;;;;4937635;29;20228;-77
2021/05/25 00:17:08;;;;;;;0.90;0.60;;;9.60;99.90;;;;;;4937768;29;20217;-77
2021/05/25 00:19:34;;;;;;;2.05;0.60;;;9.60;99.90;;;;;;4936727;29;20552;-77
2021/05/25 00:22:00;;;;;;;0.93;0.68;;;9.60;99.90;;;;;;4937767;29;20676;-77
2021/05/25 00:24:26;;;;;;;1.40;0.70;;;9.60;99.90;;;;;;4937751;29;20222;-77
2021/05/25 00:26:51;;;;;;;0.80;0.60;;;9.60;99.90;;;;;;4920731;29;20194;-77
2021/05/25 00:29:17;;;;;;;0.87;0.60;;;9.50;99.90;;;;;;4935489;29;20190;-77
2021/05/25 00:31:43;;;;;;;0.90;0.60;;;9.50;99.90;;;;;;4937759;29;20182;-77
2021/05/25 00:34:08;;;;;;;1.50;0.80;;;9.60;99.90;;;;;;4937315;29;20686;-77
2021/05/25 00:36:37;;;;;;;0.80;0.70;;;9.50;99.90;;;;;;4937772;29;20213;-77
2021/05/25 00:39:04;;;;;;;1.58;0.90;;;9.50;99.90;;;;;;4937570;29;20249;-77
2021/05/25 00:41:30;;;;;;;1.25;0.80;;;9.50;99.90;;;;;;4937550;29;20190;-77
2021/05/25 00:43:56;;;;;;;1.97;0.70;;;9.40;99.90;;;;;;4937266;29;20241;-77
2021/05/25 00:46:22;;;;;;;1.90;0.73;;;9.50;99.90;;;;;;4937397;29;20186;-77
2021/05/25 00:48:47;;;;;;;1.30;1.20;;;9.40;99.90;;;;;;4936414;29;20764;-77
2021/05/25 00:51:13;;;;;;;1.57;0.70;;;9.30;99.90;;;;;;4936112;29;20593;-79
2021/05/25 00:53:39;;;;;;;1.40;0.60;;;9.20;99.90;;;;;;4937149;29;20209;-77
2021/05/25 00:56:05;;;;;;;1.03;0.70;;;9.30;99.90;;;;;;4937309;29;20189;-76
2021/05/25 00:58:34;;;;;;;3.38;0.75;;;9.20;99.90;;;;;;4937386;29;20276;-77
2021/05/25 01:01:00;;;;;;;2.35;0.70;;;9.20;99.90;;;;;;4935915;29;20190;-77
2021/05/25 01:03:25;;;;;;;1.08;0.68;;;9.10;99.90;;;;;;4936592;29;20213;-77
2021/05/25 01:05:51;;;;;;;2.40;0.70;;;9.10;99.90;;;;;;4936003;29;20232;-77
2021/05/25 01:08:17;;;;;;;1.43;0.70;;;9.10;99.90;;;;;;4937149;29;20170;-78
2021/05/25 01:10:51;;;;;;;1.00;0.60;;;9.00;99.90;;;;;;4937063;29;20642;-77
2021/05/25 01:13:20;;;;;;;0.90;0.60;;;9.10;99.90;;;;;;4936589;29;20565;-80
2021/05/25 01:15:47;;;;;;;1.25;0.95;;;9.10;99.90;;;;;;4937009;29;20194;-77
2021/05/25 01:18:12;;;;;;;0.80;0.60;;;9.00;99.90;;;;;;4935664;29;20185;-77
2021/05/25 01:20:40;;;;;;;1.47;0.70;;;8.90;99.90;;;;;;4936909;29;20178;-77
2021/05/25 01:23:08;;;;;;;0.90;0.60;;;8.80;99.90;;;;;;4936549;29;20184;-77
2021/05/25 01:25:35;;;;;;;3.03;0.70;;;8.80;99.90;;;;;;4935468;29;20244;-77
2021/05/25 01:28:03;;;;;;;0.88;0.73;;;8.80;99.90;;;;;;4936667;29;20181;-77
2021/05/25 01:30:35;;;;;;;1.95;0.82;;;8.90;99.90;;;;;;4936625;29;20190;-77
2021/05/25 01:33:02;;;;;;;1.55;0.70;;;8.90;99.90;;;;;;4936554;29;20519;-77
2021/05/25 01:35:29;;;;;;;0.70;0.60;;;8.90;99.90;;;;;;4936441;29;20268;-77
2021/05/25 01:37:56;;;;;;;0.82;0.60;;;9.00;99.90;;;;;;4936604;29;20182;-77
2021/05/25 01:40:22;;;;;;;0.70;0.60;;;8.90;99.90;;;;;;4936508;29;20192;-77
2021/05/25 01:42:48;;;;;;;1.33;0.75;;;8.90;99.90;;;;;;4934972;29;20662;-77
2021/05/25 01:45:17;;;;;;;1.03;0.50;;;8.90;99.90;;;;;;4936427;29;20224;-77
2021/05/25 01:47:43;;;;;;;1.80;0.60;;;9.00;99.90;;;;;;4935056;29;20448;-77
2021/05/25 01:50:13;;;;;;;1.23;0.60;;;8.90;99.90;;;;;;4936376;29;20181;-77
2021/05/25 01:52:47;;;;;;;1.25;0.70;;;9.00;99.90;;;;;;4936607;29;20177;-77
2021/05/25 01:55:22;;;;;;;2.15;0.70;;;8.90;99.90;;;;;;4936402;29;20240;-77
2021/05/25 01:57:47;;;;;;;0.90;0.70;;;8.90;99.90;;;;;;4936261;29;20199;-77
2021/05/25 02:00:14;;;;;;;2.23;0.87;;;8.80;99.90;;;;;;4936276;29;20280;-77
2021/05/25 02:02:39;;;;;;;0.98;0.60;;;8.90;99.90;;;;;;4935020;29;20646;-77
2021/05/25 02:05:06;;;;;;;1.20;0.80;;;8.90;99.90;;;;;;4934708;29;20295;-77
2021/05/25 02:07:31;;;;;;;1.55;0.70;;;8.90;99.90;;;;;;4936342;29;20190;-77
2021/05/25 02:09:57;;;;;;;0.80;0.50;;;8.80;99.90;;;;;;4934811;29;20181;-77
2021/05/25 02:12:22;;;;;;;1.37;0.60;;;8.80;99.90;;;;;;4936200;29;20181;-77
2021/05/25 02:14:48;;;;;;;1.53;0.63;;;8.80;99.90;;;;;;4935610;29;20263;-78
2021/05/25 02:17:14;;;;;;;0.80;0.63;;;8.80;99.90;;;;;;4936097;29;20276;-77
2021/05/25 02:19:39;;;;;;;0.70;0.53;;;8.70;99.90;;;;;;4935929;29;20193;-77
2021/05/25 02:22:05;;;;;;;2.50;0.70;;;8.60;99.90;;;;;;4935839;29;20190;-77
2021/05/25 02:24:30;;;;;;;1.53;0.60;;;8.60;99.90;;;;;;4935638;29;20237;-77
2021/05/25 02:26:56;;;;;;;2.37;0.70;;;8.40;99.90;;;;;;4936164;29;20181;-77
2021/05/25 02:29:22;;;;;;;0.67;0.60;;;8.20;99.90;;;;;;4936241;29;20570;-77
2021/05/25 02:31:47;;;;;;;0.83;0.80;;;8.30;99.90;;;;;;4936033;29;20186;-78
2021/05/25 02:34:13;;;;;;;1.03;0.70;;;8.30;99.90;;;;;;4935494;29;20221;-77
2021/05/25 02:36:39;;;;;;;0.90;0.70;;;8.30;99.90;;;;;;4935903;29;20177;-77
2021/05/25 02:39:06;;;;;;;0.80;0.70;;;8.30;99.90;;;;;;4935852;29;20233;-77
2021/05/25 02:41:31;;;;;;;1.55;0.80;;;8.30;99.90;;;;;;4935983;29;20224;-77
2021/05/25 02:43:57;;;;;;;0.73;0.67;;;8.40;99.90;;;;;;4935378;29;20215;-77
2021/05/25 02:46:23;;;;;;;1.33;0.70;;;8.30;99.90;;;;;;4935694;29;20918;-77
2021/05/25 02:48:49;;;;;;;0.80;0.70;;;8.30;99.90;;;;;;4935838;29;20416;-77
2021/05/25 02:51:15;;;;;;;0.67;0.50;;;8.30;99.90;;;;;;4935862;29;20177;-78
2021/05/25 02:53:40;;;;;;;1.50;0.67;;;8.30;99.90;;;;;;4937904;29;20220;-77
2021/05/25 02:56:06;;;;;;;0.70;0.50;;;8.40;99.90;;;;;;4939532;29;20261;-78
2021/05/25 02:58:32;;;;;;;0.87;0.70;;;8.30;99.90;;;;;;4939442;29;20599;-77
2021/05/25 03:00:57;;;;;;;0.90;0.70;;;8.40;99.90;;;;;;4939456;29;20193;-77
2021/05/25 03:03:23;;;;;;;1.30;0.80;;;8.40;99.90;;;;;;4939022;29;20221;-77
2021/05/25 03:05:49;;;;;;;1.57;1.00;;;8.40;99.90;;;;;;4939336;29;20189;-77
2021/05/25 03:08:16;;;;;;;1.47;0.60;;;8.50;99.90;;;;;;4939228;29;20268;-79
2021/05/25 03:10:44;;;;;;;1.80;0.70;;;8.50;99.90;;;;;;4939330;29;20272;-77
2021/05/25 03:13:10;;;;;;;1.00;0.70;;;8.50;99.90;;;;;;4938847;29;20197;-77
2021/05/25 03:15:43;;;;;;;0.80;0.70;;;8.50;99.90;;;;;;4939086;29;20565;-77
2021/05/25 03:18:10;;;;;;;1.00;0.70;;;8.50;99.90;;;;;;4939124;29;20570;-77
2021/05/25 03:20:37;;;;;;;0.70;0.60;;;8.50;99.90;;;;;;4939193;29;20240;-77
2021/05/25 03:23:05;;;;;;;2.97;0.82;;;8.40;99.90;;;;;;4938512;29;20174;-77
2021/05/25 03:25:31;;;;;;;1.88;0.82;;;8.40;99.90;;;;;;4938920;29;20651;-77
2021/05/25 03:27:57;;;;;;;2.20;1.00;;;8.40;99.90;;;;;;4939165;29;20241;-77
2021/05/25 03:30:24;;;;;;;2.10;1.00;;;8.40;99.90;;;;;;4938907;29;20185;-77
2021/05/25 03:32:54;;;;;;;1.98;0.90;;;8.30;99.90;;;;;;4938672;29;20657;-77
2021/05/25 03:35:22;;;;;;;2.40;0.80;;;8.40;99.90;;;;;;4938706;29;20182;-77
2021/05/25 03:37:48;;;;;;;2.28;0.90;;;8.30;99.90;;;;;;4938718;29;20556;-76
2021/05/25 03:40:15;;;;;;;0.90;0.80;;;8.40;99.90;;;;;;4938727;29;20184;-76
2021/05/25 03:42:48;;;;;;;1.38;1.10;;;8.40;99.90;;;;;;4938534;29;20186;-76
2021/05/25 03:45:15;;;;;;;2.10;0.95;;;8.40;99.90;;;;;;4938649;29;20240;-76
2021/05/25 03:47:41;;;;;;;1.52;0.90;;;8.30;99.90;;;;;;4938670;29;20178;-76
2021/05/25 03:50:08;;;;;;;4.57;1.03;;;8.30;99.90;;;;;;4938561;29;20673;-77
2021/05/25 03:52:39;;;;;;;0.88;0.73;;;8.30;99.90;;;;;;4938288;29;20488;-77
2021/05/25 03:55:12;;;;;;;1.33;0.80;;;8.30;99.90;;;;;;4938141;29;20236;-76
2021/05/25 04:00:04;;;;;;;0.87;0.70;;;8.30;99.90;;;;;;4938550;29;20677;-76
2021/05/25 04:02:31;;;;;;;2.25;0.93;;;8.30;99.90;;;;;;4937917;29;20177;-78
2021/05/25 04:04:57;;;;;;;0.95;0.85;;;8.40;99.90;;;;;;4937762;29;20900;-77
2021/05/25 04:07:23;;;;;;;2.50;0.93;;;8.40;99.90;;;;;;4938206;29;20220;-76
2021/05/25 04:09:48;;;;;;;2.77;1.00;;;8.40;99.90;;;;;;4936967;29;20212;-76
2021/05/25 04:12:14;;;;;;;1.67;1.00;;;8.30;99.90;;;;;;4938017;29;20193;-76
2021/05/25 04:14:39;;;;;;;1.10;0.80;;;8.40;99.90;;;;;;4937478;29;20229;-76
2021/05/25 04:17:05;;;;;;;1.53;1.20;;;8.40;99.90;;;;;;4937925;29;20189;-76
2021/05/25 04:19:31;;;;;;;1.40;0.90;;;8.30;99.90;;;;;;4937789;29;20190;-77
2021/05/25 04:21:56;;;;;;;1.20;0.80;;;8.30;99.90;;;;;;4936558;29;20205;-76
2021/05/25 04:24:22;;;;;;;1.40;1.00;;;8.30;99.90;;;;;;4937347;29;20217;-77
2021/05/25 04:26:47;;;;;;;0.80;0.70;;;8.40;99.90;;;;;;4937688;29;20185;-77
2021/05/25 04:29:13;;;;;;;2.10;0.77;;;8.40;99.90;;;;;;4937930;29;20173;-76
2021/05/25 04:31:39;;;;;;;2.77;0.70;;;8.50;99.90;;;;;;4937829;29;20273;-76
2021/05/25 04:34:04;;;;;;;1.57;1.00;;;8.50;99.90;;;;;;4937389;29;20201;-76
2021/05/25 04:36:30;;;;;;;2.13;1.00;;;8.60;99.90;;;;;;4936611;29;20507;-77
2021/05/25 04:38:56;;;;;;;1.07;0.90;;;8.60;99.90;;;;;;4937446;29;20182;-76
2021/05/25 04:41:21;;;;;;;1.10;0.90;;;8.70;99.90;;;;;;4937643;29;20617;-77
2021/05/25 04:43:47;;;;;;;1.77;0.70;;;8.70;99.90;;;;;;4937067;29;20221;-77
2021/05/25 04:46:13;;;;;;;1.57;0.80;;;8.70;99.90;;;;;;4937371;29;20280;-77
2021/05/25 04:48:38;;;;;;;2.20;0.83;;;8.70;99.90;;;;;;4937299;29;20268;-77
2021/05/25 04:51:04;;;;;;;2.20;0.80;;;8.80;99.90;;;;;;4937320;29;20192;-75
2021/05/25 04:53:32;;;;;;;1.03;0.80;;;8.80;99.90;;;;;;4937034;29;20241;-77
2021/05/25 04:55:58;;;;;;;1.10;0.80;;;8.70;99.90;;;;;;4937307;29;20425;-75
2021/05/25 04:58:23;;;;;;;1.87;0.93;;;8.70;99.90;;;;;;4935836;29;20185;-75
2021/05/25 05:00:49;;;;;;;1.63;0.80;;;8.60;99.90;;;;;;4937119;29;20809;-75
2021/05/25 05:03:15;;;;;;;1.30;0.87;;;8.60;99.90;;;;;;4935334;29;20208;-74
2021/05/25 05:05:40;;;;;;;3.13;1.07;;;8.50;99.90;;;;;;4937271;29;20269;-75
2021/05/25 05:08:06;;;;;;;1.47;0.97;;;8.50;99.90;;;;;;4937205;29;20180;-75
2021/05/25 05:10:32;;;;;;;1.13;0.80;;;8.60;99.90;;;;;;4936899;29;20232;-75
2021/05/25 05:12:58;;;;;;;1.90;1.00;;;8.60;99.90;;;;;;4936503;29;20449;-75
2021/05/25 05:15:24;;;;;;;0.90;0.70;;;8.60;99.90;;;;;;4934960;29;20689;-75
2021/05/25 05:17:50;;;;;;;1.00;0.83;;;8.50;99.90;;;;;;4936969;29;20190;-75
2021/05/25 05:20:17;;;;;;;1.90;0.90;;;8.60;99.90;;;;;;4937111;29;20181;-75
2021/05/25 05:22:43;;;;;;;4.35;1.13;;;8.50;99.90;;;;;;4936836;29;20356;-75
2021/05/25 05:25:11;;;;;;;2.45;0.90;;;8.50;99.90;;;;;;4935489;29;20621;-75
2021/05/25 05:27:37;;;;;;;1.38;0.90;;;8.50;99.90;;;;;;4936744;29;20706;-75
2021/05/25 05:30:05;;;;;;;1.65;0.93;;;8.50;99.90;;;;;;4936646;29;20182;-74
2021/05/25 05:32:30;;;;;;;2.80;1.30;;;8.60;99.90;;;;;;4936636;29;20563;-75
2021/05/25 05:34:56;;;;;;;4.00;1.30;;;8.60;99.90;;;;;;4936212;29;20284;-75
2021/05/25 05:37:22;;;;;;;2.70;1.23;;;8.60;99.90;;;;;;4936362;29;20178;-74
2021/05/25 05:39:47;;;;;;;1.43;0.90;;;8.50;99.90;;;;;;4936560;29;20645;-75
2021/05/25 05:42:14;;;;;;;2.57;1.00;;;8.50;99.90;;;;;;4936721;29;20185;-75
2021/05/25 05:44:39;;;;;;;1.77;0.90;;;8.50;99.90;;;;;;4936144;29;20477;-74
2021/05/25 05:47:05;;;;;;;1.17;0.80;;;8.40;99.90;;;;;;4936499;29;20309;-74
2021/05/25 05:49:31;;;;;;;2.00;0.80;;;8.40;99.90;;;;;;4936270;29;20764;-75
2021/05/25 05:51:56;;;;;;;1.87;0.80;;;8.40;99.90;;;;;;4936326;29;20180;-75
2021/05/25 05:54:22;;;;;;;1.47;0.70;;;8.50;99.90;;;;;;4935906;29;20202;-75
2021/05/25 05:56:48;;;;;;;2.07;0.70;;;8.50;99.90;;;;;;4936253;29;20701;-76
2021/05/25 05:59:15;;;;;;;2.37;0.70;;;8.70;99.90;;;;;;4936213;29;20181;-77
2021/05/25 06:01:41;;;;;;;1.45;0.70;;;8.90;99.90;;;;;;4934861;29;20441;-75
2021/05/25 06:04:07;;;;;;;0.80;0.70;;;8.90;99.90;;;;;;4935792;29;20706;-76
2021/05/25 06:06:32;;;;;;;1.53;0.90;;;9.10;99.90;;;;;;4936059;29;20217;-74
2021/05/25 06:08:58;;;;;;;0.70;0.60;;;9.10;99.90;;;;;;4936111;29;20265;-76
2021/05/25 06:11:23;;;;;;;1.60;0.60;;;9.10;99.90;;;;;;4934860;29;20268;-75
2021/05/25 06:13:49;;;;;;;1.17;0.60;;;9.10;99.90;;;;;;4935350;29;20225;-75
2021/05/25 06:16:15;;;;;;;0.70;0.60;;;9.00;99.90;;;;;;4936242;29;20177;-75
2021/05/25 06:18:40;;;;;;;2.40;0.90;;;9.10;99.90;;;;;;4935900;29;20602;-76
2021/05/25 06:21:06;;;;;;;1.23;0.60;;;8.90;99.90;;;;;;4936187;29;20181;-75
2021/05/25 06:23:33;;;;;;;2.97;0.70;;;9.00;99.90;;;;;;4935408;29;20706;-75
2021/05/25 06:25:59;;;;;;;1.65;0.70;;;8.90;99.90;;;;;;4935839;29;20268;-76
2021/05/25 06:28:26;;;;;;;1.00;0.65;;;8.90;99.90;;;;;;4938040;28;20181;-76
2021/05/25 06:30:52;;;;;;;1.10;0.70;;;8.90;99.90;;;;;;4939838;29;20173;-74
2021/05/25 06:33:18;;;;;;;4.50;0.90;;;8.90;99.90;;;;;;4939437;29;20292;-75
2021/05/25 06:35:44;;;;;;;1.43;0.70;;;8.90;99.90;;;;;;4939690;29;20509;-74
2021/05/25 06:38:09;;;;;;;2.50;0.83;;;8.80;99.90;;;;;;4939836;29;20422;-75
2021/05/25 06:40:35;;;;;;;1.30;0.90;;;8.80;99.90;;;;;;4939703;29;20256;-75
2021/05/25 06:43:00;;;;;;;0.90;0.80;;;8.70;99.90;;;;;;4939427;29;20212;-75
2021/05/25 06:45:26;;;;;;;1.77;1.30;;;8.70;99.90;;;;;;4939508;29;20260;-75
2021/05/25 06:47:52;;;;;;;0.90;0.70;;;8.80;99.90;;;;;;4939462;29;20673;-76
2021/05/25 06:50:18;;;;;;;1.20;0.90;;;8.80;99.90;;;;;;4939463;29;20186;-76
2021/05/25 06:52:44;;;;;;;0.80;0.70;;;8.90;99.90;;;;;;4939224;29;20431;-76
2021/05/25 06:55:11;;;;;;;1.38;0.98;;;9.10;99.90;;;;;;4939394;29;20241;-75
2021/05/25 06:57:37;;;;;;;1.20;0.90;;;9.00;99.90;;;;;;4939441;29;20788;-73
2021/05/25 07:00:08;;;;;;;0.87;0.70;;;8.90;99.90;;;;;;4939364;29;20197;-74
2021/05/25 07:02:34;;;;;;;1.60;1.10;;;9.00;99.90;;;;;;4939198;29;20429;-75
2021/05/25 07:05:00;;;;;;;1.00;0.80;;;9.00;99.90;;;;;;4938857;29;20280;-76
2021/05/25 07:07:25;;;;;;;2.17;1.00;;;9.10;99.90;;;;;;4939221;29;20409;-75
2021/05/25 07:09:51;;;;;;;1.20;1.00;;;9.10;99.90;;;;;;4939075;29;20189;-75
2021/05/25 07:12:17;;;;;;;2.33;1.10;;;8.90;99.90;;;;;;4937796;29;20296;-76
2021/05/25 07:14:45;;;;;;;3.77;1.40;;;8.70;99.90;;;;;;4938622;29;20996;-77
2021/05/25 07:17:11;;;;;;;0.90;0.70;;;8.40;99.90;;;;;;4939062;29;20428;-76
2021/05/25 07:19:36;;;;;;;1.00;0.87;;;8.00;99.90;;;;;;4939004;29;20646;-76
2021/05/25 07:22:02;;;;;;;0.90;0.70;;;7.80;99.90;;;;;;4938872;29;20980;-77
2021/05/25 07:24:28;;;;;;;1.10;0.70;;;7.50;99.90;;;;;;4938437;29;20209;-76
2021/05/25 07:26:54;;;;;;;1.83;0.67;;;7.50;99.90;;;;;;4937767;29;20659;-76
2021/05/25 07:29:20;;;;;;;1.58;1.05;;;7.50;99.90;;;;;;4938554;29;20533;-75
2021/05/25 07:31:46;;;;;;;0.87;0.80;;;7.50;99.90;;;;;;4937592;29;20317;-76
2021/05/25 07:34:11;;;;;;;0.97;0.73;;;7.60;99.90;;;;;;4938136;29;20271;-75
2021/05/25 07:36:38;;;;;;;0.70;0.70;;;7.70;99.90;;;;;;4938749;29;20210;-75
2021/05/25 07:39:04;;;;;;;0.98;0.70;;;7.90;99.90;;;;;;4938214;29;20185;-75
2021/05/25 07:41:30;;;;;;;1.17;0.90;;;8.00;99.90;;;;;;4938614;29;20207;-75
2021/05/25 07:43:56;;;;;;;2.20;1.00;;;8.20;99.90;;;;;;4938150;29;20221;-78
2021/05/25 07:46:24;;;;;;;0.80;0.80;;;8.30;99.90;;;;;;4938482;29;20178;-76
2021/05/25 07:48:50;;;;;;;1.65;0.77;;;8.40;99.90;;;;;;4938530;29;20229;-77
2021/05/25 07:51:16;;;;;;;1.77;0.90;;;8.50;99.90;;;;;;4938743;29;20651;-77
2021/05/25 07:53:42;;;;;;;1.02;0.90;;;8.70;99.90;;;;;;4937958;29;20208;-77
2021/05/25 07:56:08;;;;;;;1.53;0.90;;;8.90;99.90;;;;;;4938455;29;20178;-78
2021/05/25 07:58:34;;;;;;;2.80;1.30;;;9.20;99.90;;;;;;4938180;29;20425;-76
2021/05/25 08:00:59;;;;;;;2.20;1.03;;;9.30;99.90;;;;;;4937117;29;20189;-77
2021/05/25 08:03:25;;;;;;;1.30;1.20;;;9.60;99.90;;;;;;4937678;29;20213;-76
2021/05/25 08:05:50;;;;;;;2.60;1.30;;;9.70;99.90;;;;;;4938254;29;20177;-76
2021/05/25 08:08:16;;;;;;;0.90;0.90;;;9.90;99.90;;;;;;4938060;29;20252;-78
2021/05/25 08:10:42;;;;;;;1.47;1.13;;;10.00;99.90;;;;;;4937850;29;20232;-76
2021/05/25 08:13:07;;;;;;;2.40;1.03;;;10.10;99.90;;;;;;4937682;29;20185;-76
2021/05/25 08:15:35;;;;;;;4.30;2.50;;;10.20;99.90;;;;;;4937881;29;20278;-76
2021/05/25 08:18:09;;;;;;;3.85;0.93;;;10.10;99.90;;;;;;4938049;29;20180;-76
2021/05/25 08:20:35;;;;;;;1.30;0.70;;;9.80;99.90;;;;;;4937932;29;20645;-77
2021/05/25 08:23:02;;;;;;;1.10;0.88;;;9.70;99.90;;;;;;4937394;29;20181;-77
2021/05/25 08:25:31;;;;;;;0.80;0.70;;;9.70;99.90;;;;;;4937867;29;20740;-76
2021/05/25 08:27:58;;;;;;;2.72;0.70;;;9.50;99.90;;;;;;4938033;29;20169;-78
2021/05/25 08:30:26;;;;;;;1.70;0.68;;;9.70;99.90;;;;;;4937709;29;20641;-77
2021/05/25 08:32:53;;;;;;;2.35;0.60;;;9.70;99.90;;;;;;4937358;29;20188;-77
2021/05/25 08:35:20;;;;;;;1.25;0.80;;;9.70;99.90;;;;;;4937589;29;20593;-76
2021/05/25 08:37:51;;;;;;;1.05;0.68;;;9.80;99.90;;;;;;4936369;29;20689;-77
2021/05/25 08:40:18;;;;;;;0.90;0.60;;;9.80;99.90;;;;;;4936982;29;20193;-76
2021/05/25 08:42:46;;;;;;;0.90;0.60;;;9.80;99.90;;;;;;4936598;29;20185;-77
2021/05/25 08:45:12;;;;;;;1.60;0.70;;;9.90;99.90;;;;;;4937293;29;20231;-76
2021/05/25 08:47:38;;;;;;;0.80;0.70;;;9.90;99.90;;;;;;4937486;29;20670;-76
2021/05/25 08:50:07;;;;;;;1.85;0.80;;;9.90;99.90;;;;;;4936577;29;20205;-77
2021/05/25 08:52:33;;;;;;;0.80;0.80;;;10.10;99.90;;;;;;4937252;29;20178;-77
2021/05/25 08:54:59;;;;;;;0.90;0.63;;;10.20;99.90;;;;;;4936829;29;20580;-76
2021/05/25 08:57:25;;;;;;;0.90;0.73;;;10.20;99.90;;;;;;4936053;29;20286;-77
2021/05/25 08:59:50;;;;;;;1.23;0.60;;;10.30;99.90;;;;;;4935912;29;20464;-76
2021/05/25 09:02:16;;;;;;;1.03;0.70;;;10.30;99.90;;;;;;4937123;29;20182;-78
2021/05/25 09:05:00;;;;;;;0.97;0.77;;;10.50;99.90;;;;;;4936737;29;20214;-77
2021/05/25 09:07:42;;;;;;;3.00;1.00;;;11.00;99.90;;;;;;4937375;29;20567;-77
2021/05/25 09:10:38;;;;;;;0.90;0.70;;;11.10;99.90;;;;;;4936954;29;20505;-77
2021/05/25 09:13:16;;;;;;;0.70;0.60;;;11.30;99.90;;;;;;4933141;29;20427;-77
2021/05/25 09:15:45;;;;;;;1.57;0.90;;;11.30;99.90;;;;;;4936723;29;20436;-77
2021/05/25 09:18:29;;;;;;;1.20;0.80;;;11.30;99.90;;;;;;4936709;29;20426;-77
2021/05/25 09:21:05;;;;;;;1.73;0.60;;;11.40;99.90;;;;;;4935581;29;20484;-77
2021/05/25 09:23:34;;;;;;;2.50;0.97;;;11.50;99.90;;;;;;4935062;29;20461;-77
2021/05/25 09:26:15;;;;;;;1.43;0.97;;;11.60;99.90;;;;;;4936806;29;20448;-78
2021/05/25 09:29:04;;;;;;;2.37;0.83;;;11.70;99.90;;;;;;4935354;29;20425;-77
2021/05/25 09:31:40;;;;;;;0.90;0.80;;;12.00;99.90;;;;;;4934892;29;20425;-78
2021/05/25 09:34:13;;;;;;;2.80;1.00;;;11.80;99.90;;;;;;4936377;29;20785;-78
2021/05/25 09:37:03;;;;;;;1.55;0.98;;;11.70;99.90;;;;;;4935521;29;20428;-79
2021/05/25 09:39:32;;;;;;;1.10;0.90;;;11.40;99.90;;;;;;4936607;29;20180;-78
2021/05/25 09:42:01;;;;;;;1.40;1.15;;;11.20;99.90;;;;;;4936429;29;20181;-77
2021/05/25 09:44:28;;;;;;;2.92;1.00;;;;;;;;;;4935796;29;20271;-80
2021/05/25 09:46:54;;;;;;;4.28;1.40;;;;;;;;;;4919403;29;20186;-78
2021/05/25 09:49:21;;;;;;;2.38;1.65;;;;;;;;;;4936114;29;20178;-78
2021/05/25 09:51:47;;;;;;;2.42;1.80;;;;;;;;;;4936367;29;20216;-78
2021/05/25 09:54:23;;;;;;;1.70;1.58;;;;;;;;;;4936011;29;20201;-79
2021/05/25 09:56:56;;;;;;;3.80;2.00;;;;;;;;;;4936438;29;20248;-80
2021/05/25 09:59:29;;;;;;;2.25;2.00;;;;;;;;;;4936155;29;20197;-79
2021/05/25 10:01:55;;;;;;;3.90;2.30;;;;;;;;;;4936152;29;20680;-78
2021/05/25 10:04:22;;;;;;;2.38;2.00;;;;;;;;;;4935748;29;20578;-79
2021/05/25 10:06:48;;;;;;;4.43;2.70;;;;;;;;;;4936176;29;20177;-79
2021/05/25 10:09:15;;;;;;;7.13;2.08;;;10.90;99.90;;;;;;4935925;29;20257;-80
2021/05/25 10:11:46;;;;;;;4.97;2.65;;;10.80;99.90;;;;;;4935969;29;20185;-78
2021/05/25 10:14:13;;;;;;;6.03;2.47;;;10.90;99.90;;;;;;4935710;29;20344;-80
2021/05/25 10:16:42;;;;;;;1.85;1.75;;;11.00;99.90;;;;;;4936036;29;20546;-79
2021/05/25 10:21:35;;;;;;;3.53;1.42;;;11.50;99.90;;;;;;4934691;29;20264;-80
2021/05/25 10:24:01;;;;;;;2.05;1.67;;;11.60;99.90;;;;;;4935412;29;20240;-78
2021/05/25 10:26:29;;;;;;;5.57;1.98;;;11.60;99.90;;;;;;4935167;29;20236;-80
2021/05/25 10:28:55;;;;;;;2.80;1.42;;;11.80;99.90;;;;;;4935998;29;20240;-79
2021/05/25 10:31:29;;;;;;;2.05;1.60;;;11.80;99.90;;;;;;4936037;29;20347;-79
2021/05/25 10:34:22;;;;;;;1.97;1.40;;;11.90;99.90;;;;;;4934305;29;20252;-79
2021/05/25 10:36:53;;;;;;;1.90;1.30;;;11.80;99.90;;;;;;4929782;29;20444;-78
2021/05/25 10:39:47;;;;;;;2.53;1.20;;;11.80;99.90;;;;;;4934605;29;20429;-80
2021/05/25 10:42:21;;;;;;;2.97;1.00;;;11.60;99.90;;;;;;4947933;29;20276;-78
2021/05/25 10:45:00;;;;;;;2.37;1.10;;;11.70;99.90;;;;;;4935204;29;20476;-78
2021/05/25 10:47:36;;;;;;;0.90;0.80;;;11.80;99.90;;;;;;4935746;29;20409;-78
2021/05/25 10:50:13;;;;;;;3.20;1.20;;;12.00;99.90;;;;;;4935765;29;20409;-78
2021/05/25 10:52:39;;;;;;;3.10;1.20;;;11.90;99.90;;;;;;4935661;29;20421;-80
2021/05/25 10:55:06;;;;;;;2.93;1.30;;;11.80;99.90;;;;;;4934173;29;20453;-79
2021/05/25 10:57:37;;;;;;;2.73;1.40;;;12.00;99.90;;;;;;4935736;29;20445;-80
2021/05/25 11:00:14;;;;;;;3.30;2.30;;;12.30;99.90;;;;;;4935614;29;20851;-80
2021/05/25 11:02:49;;;;;;;2.23;1.50;;;12.70;99.90;;;;;;4934427;29;20413;-80
2021/05/25 11:05:30;;;;;;;3.40;1.80;;;13.00;99.90;;;;;;4935399;29;20469;-79
2021/05/25 11:08:17;;;;;;;3.03;1.40;;;13.20;99.90;;;;;;4935388;29;20421;-78
2021/05/25 11:10:48;;;;;;;3.43;1.80;;;13.80;99.90;;;;;;4935554;29;20431;-79
2021/05/25 11:13:21;;;;;;;2.30;1.47;;;13.80;99.90;;;;;;4935377;29;20543;-80
2021/05/25 11:16:25;;;;;;;2.47;1.63;;;14.10;99.90;;;;;;4937763;29;20423;-80
2021/05/25 11:19:02;;;;;;;5.47;2.07;;;14.10;99.90;;;;;;4939079;29;20390;-79
2021/05/25 11:21:40;;;;;;;7.73;1.73;;;14.40;99.90;;;;;;4939053;29;20364;-78
2021/05/25 11:24:42;;;;;;;4.40;2.03;;;14.30;99.90;;;;;;4938431;29;20971;-79
2021/05/25 11:27:13;;;;;;;3.13;1.93;;;14.40;99.90;;;;;;4939354;29;20492;-78
2021/05/25 11:29:49;;;;;;;3.00;2.00;;;14.60;99.90;;;;;;4937819;29;20416;-78
2021/05/25 11:32:20;;;;;;;2.30;2.10;;;14.60;99.90;;;;;;4939105;29;20376;-78
2021/05/25 11:34:54;;;;;;;3.93;1.43;;;14.80;99.90;;;;;;4937154;29;20527;-79
2021/05/25 11:37:20;;;;;;;4.10;2.23;;;15.50;99.90;;;;;;4938958;29;20488;-78
2021/05/25 11:39:46;;;;;;;9.17;2.20;;;15.40;99.90;;;;;;4938796;29;20484;-79
2021/05/25 11:42:13;;;;;;;3.43;2.03;;;15.80;99.90;;;;;;4938369;29;20650;-79
2021/05/25 11:44:43;;;;;;;4.50;1.57;;;15.60;99.90;;;;;;4937069;29;20870;-79
2021/05/25 11:47:11;;;;;;;5.20;2.00;;;15.90;99.90;;;;;;4938604;29;20435;-80
2021/05/25 11:49:39;;;;;;;4.10;1.47;;;16.00;99.90;;;;;;4938633;29;20413;-78
2021/05/25 11:52:19;;;;;;;4.37;1.20;;;15.90;99.90;;;;;;4938381;29;20410;-79
2021/05/25 11:54:45;;;;;;;2.37;1.30;;;16.00;99.90;;;;;;4938136;29;20415;-79
2021/05/25 11:57:31;;;;;;;2.17;1.30;;;16.10;99.90;;;;;;4938418;29;20424;-78
2021/05/25 11:59:58;;;;;;;3.97;1.40;;;15.40;99.90;;;;;;4938328;29;20443;-78
2021/05/25 12:02:31;;;;;;;6.20;1.67;;;14.90;99.90;;;;;;4938319;29;20396;-76
2021/05/25 12:05:09;;;;;;;2.37;1.40;;;14.20;99.90;;;;;;4937903;29;20432;-77
2021/05/25 12:07:36;;;;;;;2.20;1.50;;;12.70;99.90;;;;;;4938628;29;20409;-76
2021/05/25 12:10:04;;;;;;;3.47;1.20;;;12.10;99.90;;;;;;4938200;29;20431;-76
2021/05/25 12:12:30;;;;;;;5.30;2.13;;;12.00;99.90;;;;;;4937664;29;20874;-75
2021/05/25 12:15:08;;;;;;;3.03;1.85;;;11.00;99.90;;;;;;4936521;29;20229;-77
2021/05/25 12:17:37;;;;;;;3.10;1.80;;;10.60;99.90;;;;;;4938057;29;20590;-75
2021/05/25 12:20:04;;;;;;;5.78;1.38;;;9.70;99.90;;;;;;4938073;29;20181;-74
2021/05/25 12:22:38;;;;;;;1.92;1.42;;;9.20;99.90;;;;;;4937652;29;20201;-75
2021/05/25 12:25:26;;;;;;;11.43;1.90;;;8.80;99.90;;;;;;4937509;29;20224;-74
2021/05/25 12:28:09;;;;;;;1.65;1.25;;;8.70;99.90;;;;;;4936623;29;20596;-74
2021/05/25 12:30:37;;;;;;;3.10;1.50;;;8.60;99.90;;;;;;4937712;29;20178;-75
2021/05/25 12:33:04;;;;;;;4.63;1.60;;;8.60;99.90;;;;;;4936042;29;20702;-76
2021/05/25 12:35:31;;;;;;;1.70;1.10;;;8.60;99.90;;;;;;4937756;29;20618;-76
2021/05/25 12:38:09;;;;;;;4.72;1.23;;;;;;;;;;4936629;29;20182;-75
2021/05/25 12:40:36;;;;;;;3.60;3.20;;;;;;;;;;4937495;29;20174;-76
2021/05/25 12:43:15;;;;;;;5.38;1.25;;;8.60;99.90;;;;;;4937272;29;20182;-76
2021/05/25 12:45:43;;;;;;;3.45;1.10;;;8.60;99.90;;;;;;4937503;29;20218;-77
2021/05/25 12:48:09;;;;;;;5.20;1.42;;;8.30;99.90;;;;;;4937460;29;20188;-78
2021/05/25 12:50:37;;;;;;;3.83;1.40;;;8.20;99.90;;;;;;4937351;29;20208;-78
2021/05/25 12:53:19;;;;;;;2.05;1.55;;;8.10;99.90;;;;;;4937106;29;20637;-77
2021/05/25 12:55:50;;;;;;;1.60;1.00;;;8.20;99.90;;;;;;4937389;29;20192;-77
2021/05/25 12:58:39;;;;;;;4.88;1.65;;;8.10;99.90;;;;;;4937261;29;20192;-78
2021/05/25 13:01:24;;;;;;;2.92;1.27;;;8.10;99.90;;;;;;4937232;29;20238;-78
2021/05/25 13:03:51;;;;;;;5.30;1.65;;;8.30;99.90;;;;;;4936975;29;20550;-76
2021/05/25 13:06:31;;;;;;;1.50;1.40;;;8.40;99.90;;;;;;4937213;29;20654;-77
2021/05/25 13:09:15;;;;;;;3.17;1.25;;;8.60;99.90;;;;;;4935815;29;20177;-76